CA65 weather

Alta Vista Heliport
Watsonville, California, United States

Public forecast

Using degrees Fahrenheit for public forecast. Weather courtesy of forecast.io.

Closest aviation weather report (METAR) to Alta Vista Heliport

Closest report is Watsonville Municipal Airport, 4.0 nm (7.5 km) ESE. Retrieved 2019/10/16 03:06 UTC (7 minutes ago):

KWVI 160306Z AUTO 13004KT 10SM FEW006 12/11 A3004 RMK AO2 T01220106

Closest aviation forecast (TAF) to Alta Vista Heliport

Closest forecast is Salinas Municipal Airport, 22.2 nm (41.1 km) SSE. Retrieved 2019-10-16 00:27 UTC (3 hours ago):

TAF KSNS 152325Z 1600/1624 31010KT P6SM SKC FM160300 31005KT P6SM SCT008 TEMPO 1603/1605 BKN008 FM160500 VRB04KT P6SM BKN006 FM160800 12004KT 4SM BR OVC003 FM161700 12005KT P6SM BKN006 FM161800 31010KT P6SM BKN200